Time;durP1;ratioP1;P1;durP2;ratioP2;P2;SDS_P1;SDS_P2;PMS_P1;PMS_P2;Temp;Humidity;BMP_temperature;BMP_pressure;BME280_temperature;BME280_humidity;BME280_pressure;Samples;Min_cycle;Max_cycle;Signal;HPM_P1;HPM_P2
2021/04/08 00:01:27;;;;;;;16.73;6.10;;;0.50;99.90;;;;;;4196750;28;20040;-77
2021/04/08 00:03:28;;;;;;;18.95;3.85;;;0.50;99.90;;;;;;4179155;28;20575;-77
2021/04/08 00:05:29;;;;;;;15.30;4.10;;;0.60;99.90;;;;;;4177813;28;20547;-77
2021/04/08 00:07:30;;;;;;;13.50;4.05;;;0.60;99.90;;;;;;4194179;28;20048;-77
2021/04/08 00:09:31;;;;;;;10.07;3.67;;;0.60;99.90;;;;;;4193967;28;20089;-77
2021/04/08 00:11:32;;;;;;;13.48;4.97;;;0.50;99.90;;;;;;4181786;28;20064;-77
2021/04/08 00:13:34;;;;;;;17.10;3.35;;;0.50;99.90;;;;;;4178424;28;20032;-77
2021/04/08 00:15:35;;;;;;;13.10;5.07;;;0.50;99.90;;;;;;4178102;28;20071;-77
2021/04/08 00:17:36;;;;;;;14.35;3.80;;;0.50;99.90;;;;;;4194324;28;20052;-77
2021/04/08 00:19:37;;;;;;;9.75;3.30;;;0.60;99.90;;;;;;4178098;28;20416;-77
2021/04/08 00:21:38;;;;;;;13.30;3.22;;;0.70;99.90;;;;;;4194703;28;20043;-77
2021/04/08 00:23:38;;;;;;;10.05;3.47;;;0.70;99.90;;;;;;4177804;28;20472;-77
2021/04/08 00:25:39;;;;;;;12.60;4.25;;;0.80;99.90;;;;;;4194150;28;20083;-77
2021/04/08 00:27:44;;;;;;;10.18;3.35;;;0.80;99.90;;;;;;4195040;28;20041;-77
2021/04/08 00:29:45;;;;;;;14.57;4.07;;;0.80;99.90;;;;;;4179419;28;20044;-77
2021/04/08 00:31:46;;;;;;;13.68;3.63;;;0.90;99.90;;;;;;4196310;28;20028;-77
2021/04/08 00:33:47;;;;;;;17.50;4.28;;;0.90;99.90;;;;;;4162762;28;20029;-77
2021/04/08 00:35:48;;;;;;;10.45;4.05;;;1.00;99.90;;;;;;4179203;28;20376;-77
2021/04/08 00:37:49;;;;;;;11.05;3.95;;;1.00;99.90;;;;;;4196012;28;20503;-77
2021/04/08 00:39:49;;;;;;;13.57;3.80;;;1.10;99.90;;;;;;4179557;28;20056;-77
2021/04/08 00:41:50;;;;;;;15.80;3.58;;;1.20;99.90;;;;;;4179283;28;20411;-77
2021/04/08 00:43:51;;;;;;;18.17;4.30;;;1.20;99.90;;;;;;4192908;28;20039;-77
2021/04/08 00:45:52;;;;;;;13.00;3.97;;;1.20;99.90;;;;;;4195608;28;20491;-77
2021/04/08 00:47:53;;;;;;;14.05;4.63;;;1.30;99.90;;;;;;4195966;28;20064;-77
2021/04/08 00:49:54;;;;;;;12.02;4.50;;;1.20;99.90;;;;;;4179192;28;20102;-77
2021/04/08 00:51:56;;;;;;;14.50;3.75;;;1.20;99.90;;;;;;4195366;28;20527;-77
2021/04/08 00:53:57;;;;;;;11.65;3.80;;;1.20;99.90;;;;;;4179100;28;20037;-77
2021/04/08 00:56:00;;;;;;;16.85;4.60;;;1.20;99.90;;;;;;4178795;28;20044;-77
2021/04/08 00:58:05;;;;;;;13.13;3.97;;;1.20;99.90;;;;;;4178822;28;20025;-77
2021/04/08 01:00:06;;;;;;;13.57;3.90;;;1.10;99.90;;;;;;4178787;28;20576;-78
2021/04/08 01:02:09;;;;;;;21.00;4.35;;;1.20;99.90;;;;;;4195677;28;20491;-77
2021/04/08 01:04:10;;;;;;;10.32;3.80;;;1.10;99.90;;;;;;4179010;28;20598;-77
2021/04/08 01:06:11;;;;;;;19.13;6.00;;;1.10;99.90;;;;;;4179047;28;20108;-77
2021/04/08 01:08:12;;;;;;;17.27;4.63;;;1.20;99.90;;;;;;4195277;28;20038;-77
2021/04/08 01:10:14;;;;;;;11.20;3.92;;;1.10;99.90;;;;;;4196205;28;20037;-77
2021/04/08 01:12:15;;;;;;;12.65;3.72;;;1.00;99.90;;;;;;4178945;28;20075;-77
2021/04/08 01:14:16;;;;;;;6.45;3.28;;;1.00;99.90;;;;;;4212206;28;20379;-77
2021/04/08 01:16:29;;;;;;;11.38;3.85;;;1.10;99.90;;;;;;4178818;28;20033;-77
2021/04/08 01:18:36;;;;;;;9.30;4.70;;;1.10;99.90;;;;;;4178704;28;20036;-77
2021/04/08 01:21:07;;;;;;;18.58;4.22;;;1.10;99.90;;;;;;4196404;28;20395;-76
2021/04/08 01:23:46;;;;;;;13.82;3.83;;;1.00;99.90;;;;;;4175097;28;20033;-77
2021/04/08 01:26:16;;;;;;;9.95;3.80;;;1.00;99.90;;;;;;4178009;28;20067;-77
2021/04/08 01:28:40;;;;;;;16.95;4.63;;;1.10;99.90;;;;;;4177928;28;20566;-77
2021/04/08 01:30:47;;;;;;;9.10;3.60;;;1.20;99.90;;;;;;4178595;28;20035;-77
2021/04/08 01:32:53;;;;;;;10.60;4.05;;;1.20;99.90;;;;;;4195086;28;20032;-76
2021/04/08 01:34:59;;;;;;;10.93;4.32;;;1.20;99.90;;;;;;4195044;28;20040;-77
2021/04/08 01:37:06;;;;;;;11.27;3.90;;;1.20;99.90;;;;;;4178737;28;20123;-76
2021/04/08 01:39:11;;;;;;;14.02;3.70;;;1.20;99.90;;;;;;4168792;28;20036;-76
2021/04/08 01:41:13;;;;;;;6.57;3.53;;;1.20;99.90;;;;;;4211354;28;20590;-77
2021/04/08 01:43:17;;;;;;;15.50;3.90;;;1.30;99.90;;;;;;4195061;28;20244;-77
2021/04/08 01:45:20;;;;;;;8.20;3.78;;;1.40;99.90;;;;;;4194236;28;20395;-77
2021/04/08 01:47:23;;;;;;;;;;;1.40;99.90;;;;;;4178741;28;20044;-77
2021/04/08 01:49:27;;;;;;;12.63;2.88;;;1.50;99.90;;;;;;4211517;28;20382;-76
2021/04/08 01:51:30;;;;;;;10.02;2.85;;;1.50;99.90;;;;;;4194669;28;20048;-77
2021/04/08 01:53:33;;;;;;;7.43;3.20;;;1.50;99.90;;;;;;4186813;28;20040;-76
2021/04/08 01:55:36;;;;;;;;;;;1.60;99.90;;;;;;4195302;28;20091;-76
2021/04/08 01:57:38;;;;;;;7.75;2.90;;;1.60;99.90;;;;;;4178143;28;19946;-76
2021/04/08 01:59:43;;;;;;;7.25;3.25;;;1.60;99.90;;;;;;4194473;28;20102;-76
2021/04/08 02:01:45;;;;;;;9.23;2.90;;;1.60;99.90;;;;;;4194564;28;20624;-76
2021/04/08 02:03:49;;;;;;;10.20;2.85;;;1.60;99.90;;;;;;4194581;28;20059;-76
2021/04/08 02:05:50;;;;;;;7.38;3.92;;;1.60;99.90;;;;;;4194474;28;20044;-76
2021/04/08 02:07:54;;;;;;;13.48;4.38;;;1.60;99.90;;;;;;4210964;28;20027;-76
2021/04/08 02:09:55;;;;;;;4.97;2.78;;;1.60;99.90;;;;;;4177879;28;20124;-76
2021/04/08 02:11:57;;;;;;;4.90;2.88;;;1.60;99.90;;;;;;4194494;28;20127;-76
2021/04/08 02:14:00;;;;;;;8.35;3.35;;;1.60;99.90;;;;;;4192459;28;20067;-76
2021/04/08 02:16:01;;;;;;;11.68;3.97;;;1.60;99.90;;;;;;4193401;28;20494;-76
2021/04/08 02:18:04;;;;;;;6.90;3.28;;;1.60;99.90;;;;;;4175990;28;20037;-76
2021/04/08 02:20:14;;;;;;;5.47;3.13;;;1.60;99.90;;;;;;4192761;28;20032;-76
2021/04/08 02:22:17;;;;;;;13.38;3.80;;;1.50;99.90;;;;;;4176313;28;20044;-76
2021/04/08 02:24:19;;;;;;;7.60;3.10;;;1.50;99.90;;;;;;4164264;28;20021;-75
2021/04/08 02:26:20;;;;;;;7.63;3.55;;;1.60;99.90;;;;;;4192736;28;20142;-75
2021/04/08 02:28:25;;;;;;;6.80;3.58;;;1.50;99.90;;;;;;4176031;28;20120;-76
2021/04/08 02:30:27;;;;;;;10.00;3.20;;;1.50;99.90;;;;;;4175334;28;20118;-75
2021/04/08 02:32:29;;;;;;;8.70;3.22;;;1.50;99.90;;;;;;4192399;28;20029;-75
2021/04/08 02:34:30;;;;;;;7.15;2.97;;;1.50;99.90;;;;;;4175512;28;20037;-75
2021/04/08 02:36:31;;;;;;;5.35;3.17;;;1.60;99.90;;;;;;4209199;28;20035;-75
2021/04/08 02:38:35;;;;;;;8.68;3.20;;;1.50;99.90;;;;;;4193864;28;20142;-75
2021/04/08 02:40:36;;;;;;;;;;;1.50;99.90;;;;;;4193022;28;20531;-75
2021/04/08 02:42:37;;;;;;;9.07;3.38;;;1.50;99.90;;;;;;4175551;28;20011;-76
2021/04/08 02:44:38;;;;;;;11.57;3.55;;;1.50;99.90;;;;;;4185296;28;20388;-75
2021/04/08 02:46:38;;;;;;;6.63;3.45;;;1.50;99.90;;;;;;4175976;28;20045;-75
2021/04/08 02:48:39;;;;;;;9.30;3.17;;;1.50;99.90;;;;;;4194175;28;20041;-75
2021/04/08 02:50:43;;;;;;;10.35;3.10;;;1.40;99.90;;;;;;4194101;28;20506;-75
2021/04/08 02:53:21;;;;;;;6.97;3.25;;;1.40;99.90;;;;;;4177313;28;20029;-76
2021/04/08 02:55:43;;;;;;;7.70;2.90;;;1.40;99.90;;;;;;4193451;28;20040;-75
2021/04/08 02:57:52;;;;;;;7.97;3.35;;;1.40;99.90;;;;;;4194115;28;20074;-75
2021/04/08 03:00:07;;;;;;;9.27;3.60;;;1.40;99.90;;;;;;4193956;28;20032;-76
2021/04/08 03:02:14;;;;;;;10.55;3.58;;;1.40;99.90;;;;;;4194796;28;20025;-76
2021/04/08 03:04:19;;;;;;;10.88;3.50;;;1.40;99.90;;;;;;4194046;28;20021;-76
2021/04/08 03:06:21;;;;;;;6.85;3.55;;;1.40;99.90;;;;;;4190826;28;20032;-76
2021/04/08 03:08:23;;;;;;;8.55;3.35;;;1.40;99.90;;;;;;4177384;28;20050;-76
2021/04/08 03:10:26;;;;;;;11.45;3.60;;;1.40;99.90;;;;;;4210960;28;20063;-76
2021/04/08 03:12:29;;;;;;;8.05;3.90;;;1.40;99.90;;;;;;4177615;28;20047;-76
2021/04/08 03:14:33;;;;;;;13.73;3.53;;;1.40;99.90;;;;;;4177078;28;20156;-76
2021/04/08 03:16:40;;;;;;;15.25;3.38;;;1.40;99.90;;;;;;4186319;28;20476;-76
2021/04/08 03:18:42;;;;;;;5.55;3.35;;;1.40;99.90;;;;;;4169229;28;20029;-76
2021/04/08 03:20:50;;;;;;;9.77;3.70;;;1.50;99.90;;;;;;4194039;28;20035;-76
2021/04/08 03:22:54;;;;;;;8.02;4.07;;;1.50;99.90;;;;;;4188626;28;20112;-75
2021/04/08 03:24:56;;;;;;;9.82;4.18;;;1.40;99.90;;;;;;4193026;28;20044;-76
2021/04/08 03:27:00;;;;;;;19.05;4.43;;;1.40;99.90;;;;;;4176914;28;20516;-76
2021/04/08 03:29:02;;;;;;;11.20;3.80;;;1.40;99.90;;;;;;4177078;28;20048;-78
2021/04/08 03:31:05;;;;;;;12.30;4.05;;;1.40;99.90;;;;;;4177078;28;20404;-77
2021/04/08 03:33:10;;;;;;;9.40;3.28;;;1.50;99.90;;;;;;4172638;28;20025;-76
2021/04/08 03:35:12;;;;;;;9.75;3.63;;;1.50;99.90;;;;;;4177358;28;20164;-76
2021/04/08 03:37:14;;;;;;;8.82;3.83;;;1.50;99.90;;;;;;4193420;28;20082;-74
2021/04/08 03:39:15;;;;;;;14.17;3.47;;;1.50;99.90;;;;;;4177037;28;20504;-77
2021/04/08 03:41:18;;;;;;;9.25;2.95;;;1.50;99.90;;;;;;4179057;28;20092;-77
2021/04/08 03:43:20;;;;;;;7.88;3.67;;;1.40;99.90;;;;;;4196906;28;20032;-76
2021/04/08 03:45:20;;;;;;;7.45;3.30;;;1.40;99.90;;;;;;4197069;28;20571;-76
2021/04/08 03:47:23;;;;;;;6.95;3.08;;;1.40;99.90;;;;;;4196756;28;20107;-77
2021/04/08 03:49:26;;;;;;;8.27;3.85;;;1.40;99.90;;;;;;4180019;28;20064;-77
2021/04/08 03:51:27;;;;;;;;;;;1.40;99.90;;;;;;4196784;28;20032;-76
2021/04/08 03:53:32;;;;;;;12.30;4.47;;;1.30;99.90;;;;;;4178689;28;19913;-74
2021/04/08 03:55:34;;;;;;;11.77;4.03;;;1.30;99.90;;;;;;4195045;28;20032;-75
2021/04/08 03:57:38;;;;;;;9.82;4.78;;;1.30;99.90;;;;;;4192691;28;20039;-75
2021/04/08 03:59:40;;;;;;;9.93;3.45;;;1.30;99.90;;;;;;4195211;28;20040;-75
2021/04/08 04:01:44;;;;;;;11.65;4.00;;;1.30;99.90;;;;;;4194839;28;20036;-75
2021/04/08 04:03:44;;;;;;;11.48;3.67;;;1.30;99.90;;;;;;4194972;28;20033;-76
2021/04/08 04:05:47;;;;;;;4.32;3.35;;;1.30;99.90;;;;;;4211341;28;20110;-75
2021/04/08 04:07:50;;;;;;;7.72;3.55;;;1.30;99.90;;;;;;4178032;28;20472;-76
2021/04/08 04:09:51;;;;;;;10.82;3.00;;;1.30;99.90;;;;;;4195955;28;20084;-76
2021/04/08 04:11:55;;;;;;;10.32;3.85;;;1.30;99.90;;;;;;4179490;28;20033;-76
2021/04/08 04:13:59;;;;;;;13.52;4.78;;;1.30;99.90;;;;;;4195382;28;20036;-75
2021/04/08 04:16:01;;;;;;;10.45;3.90;;;1.40;99.90;;;;;;4194584;28;20040;-76
2021/04/08 04:18:06;;;;;;;6.80;3.35;;;1.30;99.90;;;;;;4194098;28;20032;-76
2021/04/08 04:20:08;;;;;;;11.93;3.72;;;1.30;99.90;;;;;;4177878;28;20041;-76
2021/04/08 04:22:08;;;;;;;6.55;3.85;;;1.30;99.90;;;;;;4183922;28;20028;-75
2021/04/08 04:24:09;;;;;;;7.05;3.38;;;1.40;99.90;;;;;;4211296;28;20085;-77
2021/04/08 04:26:12;;;;;;;9.35;4.75;;;1.40;99.90;;;;;;4177596;28;20116;-76
2021/04/08 04:28:13;;;;;;;6.68;4.03;;;1.50;99.90;;;;;;4194903;28;20507;-76
2021/04/08 04:30:15;;;;;;;9.90;5.15;;;1.50;99.90;;;;;;4195883;28;20036;-76
2021/04/08 04:32:16;;;;;;;6.80;3.55;;;1.50;99.90;;;;;;4177719;28;20182;-76
2021/04/08 04:34:16;;;;;;;6.70;3.78;;;1.50;99.90;;;;;;4212068;28;20032;-76
2021/04/08 04:36:18;;;;;;;7.43;3.97;;;1.60;99.90;;;;;;4179508;28;20029;-77
2021/04/08 04:38:19;;;;;;;10.88;4.25;;;1.70;99.90;;;;;;4195951;28;20550;-76
2021/04/08 04:40:20;;;;;;;11.00;4.07;;;1.70;99.90;;;;;;4209286;28;20031;-76
2021/04/08 04:42:21;;;;;;;12.27;4.28;;;1.60;99.90;;;;;;4179548;28;22608;-76
2021/04/08 04:44:21;;;;;;;8.32;3.17;;;1.60;99.90;;;;;;4187118;28;20040;-76
2021/04/08 04:46:23;;;;;;;14.23;4.30;;;1.60;99.90;;;;;;4179558;28;20464;-76
2021/04/08 04:48:23;;;;;;;5.15;3.42;;;1.60;99.90;;;;;;4192301;28;20431;-76
2021/04/08 04:50:25;;;;;;;14.23;3.92;;;1.60;99.90;;;;;;4196896;28;20100;-77
2021/04/08 04:52:27;;;;;;;11.60;3.72;;;1.70;99.90;;;;;;4195382;28;20024;-76
2021/04/08 04:54:27;;;;;;;9.40;3.80;;;1.60;99.90;;;;;;4195384;28;20059;-76
2021/04/08 04:56:28;;;;;;;8.45;3.45;;;1.60;99.90;;;;;;4179199;28;20025;-76
2021/04/08 04:58:29;;;;;;;6.38;3.10;;;1.70;99.90;;;;;;4178865;28;20025;-77
2021/04/08 05:00:30;;;;;;;8.10;3.80;;;1.60;99.90;;;;;;4178724;28;20088;-76
2021/04/08 05:02:30;;;;;;;11.20;3.97;;;1.60;99.90;;;;;;4195360;28;20171;-76
2021/04/08 05:04:31;;;;;;;10.07;3.70;;;1.60;99.90;;;;;;4195029;28;20075;-76
2021/04/08 05:06:32;;;;;;;8.50;3.30;;;1.60;99.90;;;;;;4177914;28;20045;-76
2021/04/08 05:08:33;;;;;;;15.80;4.45;;;1.60;99.90;;;;;;4186726;28;20037;-76
2021/04/08 05:10:34;;;;;;;16.50;4.22;;;1.60;99.90;;;;;;4195253;28;20472;-76
2021/04/08 05:12:35;;;;;;;13.75;4.38;;;1.60;99.90;;;;;;4177858;28;20032;-76
2021/04/08 05:14:36;;;;;;;11.57;4.28;;;1.60;99.90;;;;;;4194588;28;20094;-76
2021/04/08 05:16:36;;;;;;;8.43;4.25;;;1.60;99.90;;;;;;4193816;28;20609;-76
2021/04/08 05:18:37;;;;;;;7.70;3.72;;;1.70;99.90;;;;;;4180948;28;20116;-76
2021/04/08 05:20:38;;;;;;;7.40;4.10;;;1.80;99.90;;;;;;4195004;28;20028;-76
2021/04/08 05:22:39;;;;;;;7.45;4.35;;;1.80;99.90;;;;;;4211739;28;20522;-76
2021/04/08 05:24:39;;;;;;;9.65;4.40;;;1.80;99.90;;;;;;4184215;28;20115;-76
2021/04/08 05:26:41;;;;;;;8.25;4.38;;;1.90;99.90;;;;;;4177792;28;20032;-76
2021/04/08 05:28:42;;;;;;;10.57;5.65;;;1.90;99.90;;;;;;4194844;28;20037;-76
2021/04/08 05:30:44;;;;;;;10.70;5.10;;;1.90;99.90;;;;;;4178126;28;20036;-77
2021/04/08 05:32:45;;;;;;;10.68;5.45;;;1.80;99.90;;;;;;4195261;28;20043;-76
2021/04/08 05:34:46;;;;;;;13.25;5.80;;;1.80;99.90;;;;;;4178499;28;20127;-76
2021/04/08 05:36:47;;;;;;;22.23;6.10;;;1.70;99.90;;;;;;4194906;28;20033;-76
2021/04/08 05:38:48;;;;;;;15.15;6.82;;;1.70;99.90;;;;;;4194310;28;20036;-76
2021/04/08 05:40:52;;;;;;;11.98;5.55;;;1.70;99.90;;;;;;4191856;28;20125;-75
2021/04/08 05:42:53;;;;;;;14.18;5.22;;;1.60;99.90;;;;;;4191760;28;20037;-76
2021/04/08 05:44:54;;;;;;;14.70;5.40;;;1.50;99.90;;;;;;4193303;28;20037;-76
2021/04/08 05:46:54;;;;;;;18.45;7.03;;;1.40;99.90;;;;;;4180267;28;20094;-75
2021/04/08 05:48:55;;;;;;;15.15;5.30;;;1.40;99.90;;;;;;4211023;28;20068;-75
2021/04/08 05:50:56;;;;;;;16.70;5.88;;;1.40;99.90;;;;;;4194536;28;20040;-75
2021/04/08 05:52:57;;;;;;;18.23;6.38;;;1.30;99.90;;;;;;4211771;28;20028;-75
2021/04/08 05:54:58;;;;;;;12.25;5.78;;;1.40;99.90;;;;;;4178431;28;20033;-75
2021/04/08 05:56:59;;;;;;;10.10;5.78;;;1.40;99.90;;;;;;4194210;28;20064;-76
2021/04/08 05:59:00;;;;;;;6.60;5.70;;;1.30;99.90;;;;;;4178095;28;20044;-75
2021/04/08 06:01:01;;;;;;;12.77;6.38;;;1.30;99.90;;;;;;4176888;28;20568;-77
2021/04/08 06:03:02;;;;;;;11.05;6.35;;;1.20;99.90;;;;;;4209873;28;20036;-75
2021/04/08 06:05:06;;;;;;;14.43;6.43;;;1.20;99.90;;;;;;4176238;28;20041;-75
2021/04/08 06:07:07;;;;;;;11.90;6.13;;;1.30;99.90;;;;;;4191252;28;20040;-76
2021/04/08 06:09:08;;;;;;;12.38;6.15;;;1.30;99.90;;;;;;4180337;28;20066;-75
2021/04/08 06:11:09;;;;;;;12.13;7.55;;;1.30;99.90;;;;;;4176578;28;20549;-75
2021/04/08 06:13:10;;;;;;;17.52;7.15;;;1.30;99.90;;;;;;4177298;28;20033;-77
2021/04/08 06:15:13;;;;;;;19.20;7.47;;;1.40;99.90;;;;;;4194391;28;20025;-76
2021/04/08 06:17:14;;;;;;;13.82;6.78;;;1.50;99.90;;;;;;4194126;28;20776;-75
2021/04/08 06:19:14;;;;;;;13.13;6.32;;;1.50;99.90;;;;;;4194159;28;20032;-76
2021/04/08 06:21:15;;;;;;;15.82;6.85;;;1.50;99.90;;;;;;4177709;28;20037;-77
2021/04/08 06:23:16;;;;;;;10.02;6.22;;;1.60;99.90;;;;;;4193868;28;20032;-75
2021/04/08 06:25:17;;;;;;;12.30;5.68;;;1.60;99.90;;;;;;4177443;28;20041;-76
2021/04/08 06:27:18;;;;;;;15.27;6.10;;;1.80;99.90;;;;;;4176686;28;20163;-75
2021/04/08 06:29:19;;;;;;;11.13;5.80;;;1.90;99.90;;;;;;4177341;28;20033;-76
2021/04/08 06:31:20;;;;;;;13.82;7.07;;;2.00;99.90;;;;;;4194311;28;20112;-77
2021/04/08 06:33:20;;;;;;;16.27;6.57;;;2.20;99.90;;;;;;4174721;28;20025;-77
2021/04/08 06:35:22;;;;;;;9.05;5.45;;;2.30;99.90;;;;;;4164214;28;20429;-76
2021/04/08 06:37:23;;;;;;;11.13;5.95;;;2.50;99.90;;;;;;4161755;28;20025;-77
2021/04/08 06:39:24;;;;;;;14.82;4.90;;;2.80;99.90;;;;;;4172301;28;20044;-79
2021/04/08 06:41:25;;;;;;;11.48;4.82;;;3.00;99.90;;;;;;4189542;28;20029;-77
2021/04/08 06:43:26;;;;;;;13.25;5.70;;;3.30;99.90;;;;;;4190854;28;20124;-77
2021/04/08 06:45:30;;;;;;;9.35;4.57;;;3.50;99.90;;;;;;4190009;28;20033;-78
2021/04/08 06:48:05;;;;;;;8.82;4.82;;;3.60;99.90;;;;;;4193172;28;20036;-77
2021/04/08 06:50:08;;;;;;;11.50;4.70;;;3.80;99.90;;;;;;4185093;28;20407;-78
2021/04/08 06:52:10;;;;;;;14.85;4.88;;;3.80;99.90;;;;;;4171623;28;20034;-78
2021/04/08 06:54:12;;;;;;;7.43;4.77;;;3.90;99.90;;;;;;4167522;28;20037;-78
2021/04/08 06:56:13;;;;;;;5.90;4.70;;;3.80;99.90;;;;;;4191096;28;20330;-78
2021/04/08 06:58:15;;;;;;;7.85;5.15;;;3.80;99.90;;;;;;4174880;28;20492;-78
2021/04/08 07:00:17;;;;;;;7.57;4.95;;;3.80;99.90;;;;;;4177782;28;20408;-78
2021/04/08 07:02:21;;;;;;;8.15;4.90;;;3.80;99.90;;;;;;4192975;28;20142;-78
2021/04/08 07:04:22;;;;;;;6.03;4.32;;;3.80;99.90;;;;;;4190428;28;20117;-78
2021/04/08 07:06:23;;;;;;;10.18;4.60;;;3.70;99.90;;;;;;4173848;28;20041;-78
2021/04/08 07:08:24;;;;;;;10.98;5.30;;;3.60;99.90;;;;;;4176619;28;20041;-78
2021/04/08 07:10:25;;;;;;;9.07;4.72;;;3.50;99.90;;;;;;4193471;28;20598;-78
2021/04/08 07:12:27;;;;;;;6.18;4.00;;;3.50;99.90;;;;;;4193017;28;20047;-78
2021/04/08 07:14:28;;;;;;;10.38;6.63;;;3.50;99.90;;;;;;4209953;28;20040;-79
2021/04/08 07:16:30;;;;;;;6.35;4.65;;;3.50;99.90;;;;;;4195171;28;20029;-78
2021/04/08 07:18:31;;;;;;;10.13;5.35;;;3.50;99.90;;;;;;4196502;28;20558;-78
2021/04/08 07:20:32;;;;;;;5.20;4.10;;;3.60;99.90;;;;;;4195628;28;20044;-77
2021/04/08 07:22:33;;;;;;;8.88;4.85;;;3.70;99.90;;;;;;4195669;28;20051;-77
2021/04/08 07:24:43;;;;;;;6.15;4.38;;;3.70;99.90;;;;;;4196000;28;20438;-77
2021/04/08 07:26:59;;;;;;;9.80;4.72;;;3.80;99.90;;;;;;4196087;28;20408;-77
2021/04/08 07:29:00;;;;;;;7.57;4.15;;;3.80;99.90;;;;;;4204202;28;20077;-78
2021/04/08 07:31:23;;;;;;;9.18;5.50;;;3.90;99.90;;;;;;4180040;28;20032;-77
2021/04/08 07:33:24;;;;;;;7.15;4.93;;;4.00;99.90;;;;;;4195322;28;20029;-77
2021/04/08 07:35:40;;;;;;;8.30;5.80;;;4.00;99.90;;;;;;4186859;28;20078;-78
2021/04/08 07:37:42;;;;;;;7.93;4.43;;;4.10;99.90;;;;;;4179371;28;20029;-77
2021/04/08 07:39:45;;;;;;;6.93;4.40;;;4.20;99.90;;;;;;4212814;28;20400;-78
2021/04/08 07:42:09;;;;;;;8.82;4.72;;;4.30;99.90;;;;;;4179621;28;20116;-78
2021/04/08 07:44:12;;;;;;;5.20;4.00;;;4.40;99.90;;;;;;4195076;28;20089;-77
2021/04/08 07:46:35;;;;;;;8.80;4.90;;;4.50;99.90;;;;;;4179322;28;20045;-77
2021/04/08 07:48:36;;;;;;;11.43;6.07;;;4.60;99.90;;;;;;4195835;28;20061;-78
2021/04/08 07:50:40;;;;;;;7.25;4.25;;;4.60;99.90;;;;;;4195722;28;20379;-78
2021/04/08 07:52:46;;;;;;;;;;;4.60;99.90;;;;;;4179848;28;20124;-77
2021/04/08 07:55:06;;;;;;;6.57;4.57;;;4.70;99.90;;;;;;4195908;28;19962;-78
2021/04/08 07:57:07;;;;;;;9.60;4.50;;;4.70;99.90;;;;;;4189060;28;20466;-77
2021/04/08 07:59:26;;;;;;;6.57;5.07;;;4.80;99.90;;;;;;4187258;28;20033;-77
2021/04/08 08:01:27;;;;;;;5.50;4.45;;;4.80;99.90;;;;;;4176837;28;20183;-78
2021/04/08 08:03:33;;;;;;;10.05;5.03;;;4.90;99.90;;;;;;4179620;28;20029;-77
2021/04/08 08:05:41;;;;;;;7.80;4.03;;;5.00;99.90;;;;;;4195714;28;20024;-77
2021/04/08 08:07:42;;;;;;;8.93;5.05;;;5.10;99.90;;;;;;4195432;28;20465;-77
2021/04/08 08:09:48;;;;;;;7.38;3.67;;;5.20;99.90;;;;;;4177074;28;20519;-79
2021/04/08 08:11:50;;;;;;;5.10;4.60;;;5.30;99.90;;;;;;4212184;28;20065;-78
2021/04/08 08:13:56;;;;;;;9.73;4.50;;;5.30;99.90;;;;;;4179336;28;20052;-80
2021/04/08 08:15:59;;;;;;;4.60;3.60;;;5.40;99.90;;;;;;4175103;28;20164;-77
2021/04/08 08:18:00;;;;;;;7.47;3.97;;;5.50;99.90;;;;;;4194563;28;20091;-76
2021/04/08 08:20:06;;;;;;;6.75;3.60;;;5.60;99.90;;;;;;4195535;28;20056;-78
2021/04/08 08:22:17;;;;;;;8.27;3.65;;;5.80;99.90;;;;;;4194982;28;20050;-78
2021/04/08 08:24:18;;;;;;;6.18;3.55;;;5.90;99.90;;;;;;4177185;28;20566;-79
2021/04/08 08:26:40;;;;;;;6.95;3.70;;;6.10;99.90;;;;;;4178760;28;20080;-78
2021/04/08 08:28:40;;;;;;;8.38;4.10;;;6.40;99.90;;;;;;4194726;28;20040;-78
2021/04/08 08:30:55;;;;;;;5.25;4.40;;;6.70;99.90;;;;;;4178751;28;20152;-78
2021/04/08 08:33:19;;;;;;;8.10;4.20;;;7.00;99.90;;;;;;4180358;28;20037;-78
2021/04/08 08:35:20;;;;;;;9.27;4.20;;;7.20;99.90;;;;;;4195945;28;20734;-79
2021/04/08 08:37:21;;;;;;;5.45;3.70;;;7.40;99.90;;;;;;4178160;28;20283;-78
2021/04/08 08:39:29;;;;;;;5.15;4.05;;;7.30;99.90;;;;;;4178426;28;20484;-78
2021/04/08 08:41:31;;;;;;;12.35;5.25;;;7.30;99.90;;;;;;4212257;28;20035;-78
2021/04/08 08:43:32;;;;;;;5.63;4.65;;;7.30;99.90;;;;;;4195276;28;20424;-78
2021/04/08 08:45:35;;;;;;;9.90;4.13;;;7.20;99.90;;;;;;4178644;28;20021;-78
2021/04/08 08:47:39;;;;;;;7.00;4.25;;;7.10;99.90;;;;;;4195039;28;20483;-78
2021/04/08 08:49:44;;;;;;;5.63;4.35;;;7.10;99.90;;;;;;4195288;28;20460;-78
2021/04/08 08:51:49;;;;;;;6.43;4.03;;;7.10;99.90;;;;;;4199935;28;20040;-78
2021/04/08 08:53:52;;;;;;;5.22;3.85;;;7.20;99.90;;;;;;4193414;28;20063;-78
2021/04/08 08:55:54;;;;;;;7.20;4.35;;;7.30;99.90;;;;;;4178257;28;20102;-77
2021/04/08 08:57:57;;;;;;;8.25;4.43;;;7.30;99.90;;;;;;4193310;28;20074;-78
2021/04/08 08:59:59;;;;;;;7.38;4.47;;;7.20;99.90;;;;;;4169863;28;20584;-78
2021/04/08 09:02:00;;;;;;;7.78;6.43;;;7.20;99.90;;;;;;4211662;28;20036;-78
2021/04/08 09:04:04;;;;;;;6.80;4.30;;;7.30;99.90;;;;;;4178527;28;20099;-78
2021/04/08 09:06:06;;;;;;;8.40;4.68;;;7.60;99.90;;;;;;4177880;28;20033;-78
2021/04/08 09:08:15;;;;;;;8.07;4.38;;;8.10;99.90;;;;;;4184367;28;20041;-78
2021/04/08 09:10:31;;;;;;;8.52;4.53;;;8.70;99.90;;;;;;4194793;28;20033;-78
2021/04/08 09:12:34;;;;;;;8.10;4.70;;;8.90;99.90;;;;;;4196067;28;20146;-78
2021/04/08 09:14:35;;;;;;;9.35;5.05;;;9.00;99.90;;;;;;4194722;28;20482;-78
2021/04/08 09:16:45;;;;;;;7.32;4.68;;;8.90;99.90;;;;;;4194847;28;20059;-78
2021/04/08 09:19:03;;;;;;;8.82;4.57;;;9.10;99.90;;;;;;4177718;28;20125;-78
2021/04/08 09:21:05;;;;;;;9.52;5.47;;;9.30;99.90;;;;;;4189105;28;20036;-78
2021/04/08 09:23:11;;;;;;;7.28;5.35;;;9.40;99.90;;;;;;4194839;28;20063;-77
2021/04/08 09:25:16;;;;;;;6.47;5.10;;;9.40;99.90;;;;;;4194346;28;20072;-78
2021/04/08 09:27:22;;;;;;;8.07;5.32;;;9.40;99.90;;;;;;4181904;28;20029;-78
2021/04/08 09:29:35;;;;;;;8.35;5.47;;;9.40;99.90;;;;;;4177682;28;20029;-78
2021/04/08 09:31:36;;;;;;;8.95;4.78;;;9.10;99.90;;;;;;4191757;28;20472;-77
2021/04/08 09:33:42;;;;;;;9.27;5.30;;;9.00;99.90;;;;;;4194342;28;20032;-77
2021/04/08 09:35:44;;;;;;;10.80;5.43;;;9.00;99.90;;;;;;4195473;28;20039;-77
2021/04/08 09:37:48;;;;;;;11.50;5.88;;;9.20;99.90;;;;;;4177983;28;20065;-77
2021/04/08 09:39:48;;;;;;;7.22;5.20;;;9.30;99.90;;;;;;4192174;28;20041;-77
2021/04/08 09:41:55;;;;;;;9.43;5.65;;;9.20;99.90;;;;;;4188098;28;20625;-78
2021/04/08 09:43:57;;;;;;;10.75;6.28;;;9.00;99.90;;;;;;4177653;28;20052;-78
2021/04/08 09:46:02;;;;;;;10.38;5.78;;;9.00;99.90;;;;;;4194065;28;20036;-77
2021/04/08 09:48:22;;;;;;;7.35;5.80;;;8.80;99.90;;;;;;4193562;28;20036;-78
2021/04/08 09:50:49;;;;;;;7.95;5.25;;;8.80;99.90;;;;;;4175796;28;20128;-78
2021/04/08 09:52:56;;;;;;;8.32;5.65;;;8.50;99.90;;;;;;4189897;28;20102;-77
2021/04/08 09:54:58;;;;;;;8.10;6.50;;;8.50;99.90;;;;;;4210191;28;20055;-77
2021/04/08 09:56:59;;;;;;;8.43;6.60;;;8.50;99.90;;;;;;4193899;28;20647;-77
2021/04/08 09:59:00;;;;;;;13.38;6.88;;;8.60;99.90;;;;;;4182271;28;20155;-77
2021/04/08 10:01:04;;;;;;;11.35;7.05;;;8.60;99.90;;;;;;4193847;28;20029;-77
2021/04/08 10:03:07;;;;;;;8.35;5.97;;;8.50;99.90;;;;;;4193328;28;20449;-76
2021/04/08 10:05:11;;;;;;;8.37;5.47;;;8.40;99.90;;;;;;4193192;28;20035;-77
2021/04/08 10:07:12;;;;;;;10.65;6.45;;;8.40;99.90;;;;;;4176905;28;20361;-77
2021/04/08 10:09:16;;;;;;;10.65;6.57;;;8.20;99.90;;;;;;4180455;28;20481;-78
2021/04/08 10:11:29;;;;;;;;;;;8.10;99.90;;;;;;4194178;28;20025;-77
2021/04/08 10:13:32;;;;;;;8.95;6.63;;;8.20;99.90;;;;;;4193374;28;19939;-77
2021/04/08 10:15:35;;;;;;;;;;;8.20;99.90;;;;;;4177802;28;20040;-77
2021/04/08 10:17:38;;;;;;;13.82;6.72;;;8.30;99.90;;;;;;4171767;28;20008;-77
2021/04/08 10:19:43;;;;;;;8.82;6.32;;;8.40;99.90;;;;;;4194927;28;20132;-77
2021/04/08 10:21:44;;;;;;;9.43;6.35;;;8.40;99.90;;;;;;4206694;28;20038;-76
2021/04/08 10:23:50;;;;;;;11.10;6.55;;;8.30;99.90;;;;;;4193595;28;20119;-77
2021/04/08 10:26:10;;;;;;;6.63;5.95;;;8.30;99.90;;;;;;4192842;28;20502;-77
2021/04/08 10:28:10;;;;;;;11.43;7.45;;;8.20;99.90;;;;;;4172046;28;20095;-76
2021/04/08 10:30:17;;;;;;;9.38;6.00;;;8.30;99.90;;;;;;4206219;28;20115;-77
2021/04/08 10:32:36;;;;;;;11.02;7.20;;;8.40;99.90;;;;;;4193075;28;20098;-76
2021/04/08 10:34:40;;;;;;;11.05;6.68;;;8.40;99.90;;;;;;4193112;28;20025;-76
2021/04/08 10:36:42;;;;;;;10.27;6.90;;;8.30;99.90;;;;;;4174830;28;20025;-76
2021/04/08 10:38:43;;;;;;;10.52;7.00;;;8.50;99.90;;;;;;4210437;28;20131;-76
2021/04/08 10:40:51;;;;;;;9.63;5.82;;;8.70;99.90;;;;;;4176266;28;20491;-77
2021/04/08 10:43:06;;;;;;;10.43;6.88;;;8.90;99.90;;;;;;4165850;28;20116;-77
2021/04/08 10:45:11;;;;;;;9.57;6.40;;;9.10;99.90;;;;;;4169329;28;20037;-77
2021/04/08 10:47:22;;;;;;;8.73;6.20;;;9.20;99.90;;;;;;4176569;28;20139;-77
2021/04/08 10:49:34;;;;;;;13.35;8.60;;;9.20;99.90;;;;;;4176430;28;20033;-77
2021/04/08 10:51:35;;;;;;;11.93;6.95;;;9.20;99.90;;;;;;4192920;28;20442;-77
2021/04/08 10:53:36;;;;;;;9.32;7.35;;;9.20;99.90;;;;;;4184480;28;20033;-76